createdAt,value
2023-03-25T00:02:12.039Z,6.96
2023-03-25T00:05:18.015Z,6.89
2023-03-25T00:08:24.310Z,6.88
2023-03-25T00:11:31.221Z,6.95
2023-03-25T00:14:39.910Z,6.93
2023-03-25T00:17:46.635Z,6.88
2023-03-25T00:20:52.767Z,6.90
2023-03-25T00:23:59.907Z,6.93
2023-03-25T00:27:06.796Z,6.96
2023-03-25T00:30:13.784Z,7.04
2023-03-25T00:33:21.187Z,7.03
2023-03-25T00:36:27.862Z,6.91
2023-03-25T00:39:34.373Z,6.80
2023-03-25T00:42:41.563Z,6.75
2023-03-25T00:45:48.453Z,6.73
2023-03-25T00:48:54.616Z,6.68
2023-03-25T00:51:59.339Z,6.71
2023-03-25T00:55:05.704Z,6.70
2023-03-25T00:58:12.179Z,6.75
2023-03-25T01:01:29.311Z,6.67
2023-03-25T01:04:36.734Z,6.55
2023-03-25T01:07:43.563Z,6.48
2023-03-25T01:10:52.994Z,6.42
2023-03-25T01:13:58.463Z,6.39
2023-03-25T01:21:14.213Z,6.33
2023-03-25T01:24:20.516Z,6.28
2023-03-25T01:27:25.539Z,6.29
2023-03-25T01:30:32.136Z,6.29
2023-03-25T01:33:39.503Z,6.27
2023-03-25T01:36:46.424Z,6.19
2023-03-25T01:39:54.525Z,6.09
2023-03-25T01:42:59.972Z,6.12
2023-03-25T01:46:06.623Z,6.14
2023-03-25T01:49:12.342Z,6.12
2023-03-25T01:52:23.524Z,6.20
2023-03-25T01:55:31.272Z,6.19
2023-03-25T01:58:38.151Z,6.17
2023-03-25T02:01:43.292Z,6.21
2023-03-25T02:05:15.736Z,6.02
2023-03-25T02:08:22.848Z,5.86
2023-03-25T02:11:29.122Z,5.69
2023-03-25T02:14:38.397Z,5.55
2023-03-25T02:18:11.854Z,5.60
2023-03-25T02:21:30.717Z,5.69
2023-03-25T02:25:17.796Z,5.69
2023-03-25T02:29:04.852Z,5.69
2023-03-25T02:32:29.070Z,5.72
2023-03-25T02:35:59.835Z,5.76
2023-03-25T02:39:10.461Z,5.76
2023-03-25T02:42:21.911Z,5.81
2023-03-25T02:45:49.096Z,5.83
2023-03-25T02:49:26.307Z,5.89
2023-03-25T02:52:45.472Z,6.06
2023-03-25T02:55:44.424Z,5.99
2023-03-25T02:58:51.908Z,5.93
2023-03-25T03:01:57.574Z,5.91
2023-03-25T03:07:46.180Z,6.03
2023-03-25T03:11:27.700Z,6.02
2023-03-25T03:15:18.973Z,6.18
2023-03-25T03:18:58.391Z,6.03
2023-03-25T03:22:39.356Z,6.10
2023-03-25T03:26:02.038Z,6.14
2023-03-25T03:29:16.683Z,6.26
2023-03-25T03:32:50.062Z,6.32
2023-03-25T03:36:15.154Z,6.31
2023-03-25T03:39:26.900Z,6.26
2023-03-25T03:43:10.943Z,6.24
2023-03-25T03:46:17.689Z,6.33
2023-03-25T03:49:30.797Z,6.31
2023-03-25T03:52:44.114Z,6.39
2023-03-25T03:55:58.317Z,6.48
2023-03-25T03:59:07.317Z,6.60
2023-03-25T04:02:16.047Z,6.64
2023-03-25T04:05:26.557Z,6.59
2023-03-25T04:08:48.009Z,6.56
2023-03-25T04:11:58.564Z,6.54
2023-03-25T04:15:05.768Z,6.58
2023-03-25T04:18:13.483Z,6.76
2023-03-25T04:21:22.332Z,6.82
2023-03-25T04:24:29.166Z,6.80
2023-03-25T04:27:39.017Z,6.87
2023-03-25T04:30:45.181Z,6.93
2023-03-25T04:33:52.741Z,6.95
2023-03-25T04:36:58.825Z,6.98
2023-03-25T04:40:06.587Z,6.89
2023-03-25T04:43:12.586Z,6.91
2023-03-25T04:46:18.649Z,6.99
2023-03-25T04:49:29.850Z,7.03
2023-03-25T04:52:36.669Z,7.10
2023-03-25T04:55:43.520Z,7.07
2023-03-25T04:58:49.004Z,7.13
2023-03-25T05:01:53.989Z,7.26
2023-03-25T05:05:00.825Z,7.24
2023-03-25T05:08:08.403Z,7.36
2023-03-25T05:11:14.231Z,7.40
2023-03-25T05:14:28.310Z,7.30
2023-03-25T05:17:34.148Z,7.58
2023-03-25T05:20:42.445Z,7.70
2023-03-25T05:23:50.182Z,7.56
2023-03-25T05:26:56.921Z,7.71
2023-03-25T05:30:04.659Z,7.84
2023-03-25T05:33:10.335Z,7.73
2023-03-25T05:36:15.536Z,7.85
2023-03-25T05:39:21.149Z,8.09
2023-03-25T05:42:29.144Z,8.29
2023-03-25T05:45:35.683Z,8.35
2023-03-25T05:48:42.178Z,8.33
2023-03-25T05:51:49.069Z,8.46
2023-03-25T05:54:56.459Z,8.57
2023-03-25T05:58:04.054Z,8.78
2023-03-25T06:01:25.513Z,8.80
2023-03-25T06:04:20.316Z,8.67
2023-03-25T06:07:28.905Z,8.70
2023-03-25T06:10:34.824Z,8.72
2023-03-25T06:13:43.729Z,8.87
2023-03-25T06:16:50.259Z,8.93
2023-03-25T06:19:56.050Z,9.08
2023-03-25T06:23:02.830Z,9.10
2023-03-25T06:26:08.864Z,8.63
2023-03-25T06:29:16.412Z,8.61
2023-03-25T06:32:23.442Z,8.69
2023-03-25T06:35:27.748Z,8.73
2023-03-25T06:38:33.359Z,8.79
2023-03-25T06:41:43.229Z,8.98
2023-03-25T06:44:50.961Z,9.13
2023-03-25T06:48:09.779Z,9.17
2023-03-25T06:51:14.710Z,9.35
2023-03-25T06:54:22.189Z,9.47
2023-03-25T06:57:27.321Z,9.66
2023-03-25T07:00:35.789Z,9.67
2023-03-25T07:03:43.533Z,9.63
2023-03-25T07:06:49.420Z,9.46
2023-03-25T07:09:56.101Z,9.45
2023-03-25T07:13:01.754Z,9.48
2023-03-25T07:16:14.632Z,9.53
2023-03-25T07:19:20.567Z,9.64
2023-03-25T07:22:25.464Z,9.69
2023-03-25T07:25:31.217Z,9.60
2023-03-25T07:28:36.790Z,9.68
2023-03-25T07:31:42.143Z,9.71
2023-03-25T07:34:48.496Z,9.65
2023-03-25T07:37:55.823Z,9.56
2023-03-25T07:41:02.840Z,9.67
2023-03-25T07:44:08.765Z,9.77
2023-03-25T07:47:14.573Z,9.75
2023-03-25T07:50:25.671Z,9.73
2023-03-25T07:53:31.922Z,9.73
2023-03-25T07:56:37.110Z,9.78
2023-03-25T07:59:43.041Z,9.56
2023-03-25T08:02:49.293Z,9.52
2023-03-25T08:06:02.130Z,9.37
2023-03-25T08:09:07.997Z,9.40
2023-03-25T08:12:13.161Z,9.45
2023-03-25T08:15:19.152Z,9.51
2023-03-25T08:18:25.508Z,9.55
2023-03-25T08:21:35.274Z,9.59
2023-03-25T08:24:42.094Z,9.69
2023-03-25T08:27:48.627Z,9.78
2023-03-25T08:30:56.827Z,9.88
2023-03-25T08:34:03.241Z,10.05
2023-03-25T08:37:09.386Z,10.08
2023-03-25T08:40:19.164Z,10.19
2023-03-25T08:43:25.926Z,10.25
2023-03-25T08:46:31.581Z,10.44
2023-03-25T08:49:36.684Z,10.31
2023-03-25T08:52:43.440Z,10.17
2023-03-25T08:55:49.444Z,10.06
2023-03-25T08:58:55.945Z,10.01
2023-03-25T09:02:02.852Z,9.99
2023-03-25T09:05:09.125Z,10.02
2023-03-25T09:08:14.371Z,10.21
2023-03-25T09:11:30.173Z,10.46
2023-03-25T09:14:19.606Z,10.59
2023-03-25T09:17:25.124Z,10.78
2023-03-25T09:20:31.523Z,10.90
2023-03-25T09:23:37.247Z,10.90
2023-03-25T09:26:42.627Z,10.96
2023-03-25T09:29:48.513Z,10.98
2023-03-25T09:32:55.548Z,11.11
2023-03-25T09:36:03.363Z,11.24
2023-03-25T09:39:09.389Z,11.39
2023-03-25T09:42:49.013Z,11.40
2023-03-25T09:46:00.463Z,11.44
2023-03-25T09:49:06.221Z,11.26
2023-03-25T09:52:12.117Z,11.29
2023-03-25T09:55:24.250Z,11.30
2023-03-25T09:58:55.333Z,11.21
2023-03-25T10:02:11.834Z,11.27
2023-03-25T10:06:07.818Z,11.36
2023-03-25T10:09:32.735Z,11.26
2023-03-25T10:12:58.590Z,11.43
2023-03-25T10:16:43.265Z,11.66
2023-03-25T10:20:20.281Z,11.89
2023-03-25T10:23:36.925Z,12.15
2023-03-25T10:26:54.411Z,12.03
2023-03-25T10:30:12.812Z,12.20
2023-03-25T10:33:27.317Z,12.48
2023-03-25T10:36:32.628Z,12.40
2023-03-25T10:39:40.479Z,12.34
2023-03-25T10:42:53.907Z,12.27
2023-03-25T10:46:01.329Z,12.24
2023-03-25T10:49:07.737Z,12.19
2023-03-25T10:52:16.367Z,12.27
2023-03-25T10:55:24.814Z,12.35
2023-03-25T10:58:31.346Z,12.46
2023-03-25T11:01:43.678Z,12.53
2023-03-25T11:04:52.705Z,12.57
2023-03-25T11:08:23.635Z,12.74
2023-03-25T11:11:20.672Z,12.67
2023-03-25T11:14:27.304Z,12.79
2023-03-25T11:17:33.680Z,12.95
2023-03-25T11:20:43.332Z,13.01
2023-03-25T11:23:51.526Z,13.26
2023-03-25T11:26:59.455Z,13.45
2023-03-25T11:30:17.576Z,13.66
2023-03-25T11:33:29.264Z,13.70
2023-03-25T11:36:46.678Z,13.54
2023-03-25T11:39:55.832Z,13.52
2023-03-25T11:43:10.899Z,13.76
2023-03-25T11:46:33.127Z,13.92
2023-03-25T11:49:41.201Z,14.00
2023-03-25T11:53:00.184Z,13.88
2023-03-25T11:56:09.546Z,13.95
2023-03-25T11:59:16.110Z,14.01
2023-03-25T12:02:47.551Z,14.02
2023-03-25T12:05:54.281Z,13.99
2023-03-25T12:09:14.830Z,14.10
2023-03-25T12:12:53.184Z,13.97
2023-03-25T12:16:24.029Z,14.02
2023-03-25T12:19:50.498Z,13.99
2023-03-25T12:23:35.019Z,13.89
2023-03-25T12:27:11.381Z,13.86
2023-03-25T12:30:48.046Z,13.89
2023-03-25T12:34:05.784Z,13.96
2023-03-25T12:37:47.221Z,13.89
2023-03-25T12:41:16.446Z,13.81
2023-03-25T12:45:00.271Z,13.90
2023-03-25T12:48:15.009Z,13.94
2023-03-25T12:51:26.304Z,13.78
2023-03-25T12:54:57.511Z,13.83
2023-03-25T12:58:40.322Z,13.73
2023-03-25T13:02:06.998Z,13.85
2023-03-25T13:05:36.874Z,13.96
2023-03-25T13:08:53.821Z,13.95
2023-03-25T13:12:06.596Z,14.03
2023-03-25T13:15:38.720Z,14.14
2023-03-25T13:19:05.987Z,14.08
2023-03-25T13:22:18.977Z,14.16
2023-03-25T13:25:31.269Z,14.17
2023-03-25T13:28:44.980Z,14.21
2023-03-25T13:31:54.899Z,14.22
2023-03-25T13:35:08.596Z,14.23
2023-03-25T13:38:17.948Z,14.14
2023-03-25T13:41:38.905Z,14.24
2023-03-25T13:44:52.974Z,14.33
2023-03-25T13:48:02.983Z,14.45
2023-03-25T13:51:10.652Z,14.45
2023-03-25T13:54:36.745Z,14.48
2023-03-25T13:57:51.204Z,14.59
2023-03-25T14:01:28.911Z,14.35
2023-03-25T14:05:20.234Z,14.28
2023-03-25T14:08:47.568Z,14.25
2023-03-25T14:11:54.468Z,14.13
2023-03-25T14:15:03.794Z,14.13
2023-03-25T14:18:10.863Z,13.96
2023-03-25T14:21:37.113Z,13.90
2023-03-25T14:24:55.613Z,13.74
2023-03-25T14:28:04.514Z,13.79
2023-03-25T14:31:30.535Z,13.72
2023-03-25T14:34:41.669Z,13.60
2023-03-25T14:37:46.558Z,13.51
2023-03-25T14:41:03.868Z,13.51
2023-03-25T14:44:05.208Z,13.49
2023-03-25T14:47:32.635Z,13.30
2023-03-25T14:50:47.676Z,13.23
2023-03-25T14:53:52.655Z,13.20
2023-03-25T14:57:11.405Z,13.08
2023-03-25T15:00:18.847Z,12.99
2023-03-25T15:03:28.644Z,13.00
2023-03-25T15:06:46.299Z,12.86
2023-03-25T15:10:05.977Z,12.66
2023-03-25T15:13:25.413Z,12.57
2023-03-25T15:16:48.320Z,12.54
2023-03-25T15:20:21.736Z,12.36
2023-03-25T15:23:56.732Z,12.31
2023-03-25T15:27:03.509Z,12.34
2023-03-25T15:30:14.244Z,12.14
2023-03-25T15:33:46.451Z,12.18
2023-03-25T15:37:03.767Z,12.11
2023-03-25T15:40:33.055Z,12.08
2023-03-25T15:44:23.846Z,12.06
2023-03-25T15:47:50.585Z,11.90
2023-03-25T15:51:20.896Z,11.76
2023-03-25T15:54:50.190Z,11.76
2023-03-25T15:58:18.472Z,11.63
2023-03-25T16:01:42.985Z,11.51
2023-03-25T16:05:02.254Z,11.40
2023-03-25T16:08:07.898Z,11.25
2023-03-25T16:11:38.845Z,10.96
2023-03-25T16:14:47.227Z,10.84
2023-03-25T16:17:53.023Z,10.68
2023-03-25T16:20:59.476Z,10.45
2023-03-25T16:24:09.054Z,10.38
2023-03-25T16:27:25.716Z,10.18
2023-03-25T16:30:40.318Z,10.05
2023-03-25T16:33:54.177Z,9.88
2023-03-25T16:37:01.316Z,9.86
2023-03-25T16:40:12.700Z,9.93
2023-03-25T16:43:21.586Z,9.73
2023-03-25T16:46:28.432Z,9.60
2023-03-25T16:49:38.281Z,9.45
2023-03-25T16:52:46.066Z,9.43
2023-03-25T16:56:03.988Z,9.39
2023-03-25T16:59:20.809Z,9.32
2023-03-25T17:02:48.249Z,9.11
2023-03-25T17:06:11.033Z,9.05
2023-03-25T17:09:18.762Z,8.84
2023-03-25T17:12:35.178Z,8.82
2023-03-25T17:15:41.715Z,8.82
2023-03-25T17:18:47.104Z,8.78
2023-03-25T17:21:52.955Z,8.73
2023-03-25T17:25:11.295Z,8.69
2023-03-25T17:28:36.804Z,8.50
2023-03-25T17:31:49.784Z,8.65
2023-03-25T17:34:57.541Z,8.49
2023-03-25T17:38:05.112Z,8.38
2023-03-25T17:41:16.231Z,8.38
2023-03-25T17:44:21.857Z,8.15
2023-03-25T17:47:32.718Z,8.13
2023-03-25T17:50:39.530Z,8.11
2023-03-25T17:53:45.085Z,8.16
2023-03-25T17:56:50.701Z,7.93
2023-03-25T17:59:58.196Z,8.02
2023-03-25T18:03:05.790Z,8.07
2023-03-25T18:06:12.523Z,7.90
2023-03-25T18:09:20.504Z,7.81
2023-03-25T18:12:20.314Z,7.79
2023-03-25T18:15:26.781Z,7.79
2023-03-25T18:18:38.034Z,7.71
2023-03-25T18:21:43.401Z,7.72
2023-03-25T18:24:43.721Z,7.64
2023-03-25T18:27:52.640Z,7.60
2023-03-25T18:31:02.561Z,7.60
2023-03-25T18:34:07.649Z,7.54
2023-03-25T18:37:14.141Z,7.58
2023-03-25T18:40:38.312Z,7.65
2023-03-25T18:43:43.994Z,7.72
2023-03-25T18:46:50.092Z,7.87
2023-03-25T18:49:55.802Z,7.88
2023-03-25T18:53:02.080Z,8.05
2023-03-25T18:56:05.908Z,8.12
2023-03-25T18:58:59.885Z,8.19
2023-03-25T19:02:06.361Z,8.09
2023-03-25T19:05:11.942Z,8.09
2023-03-25T19:08:18.216Z,8.20
2023-03-25T19:11:23.941Z,8.24
2023-03-25T19:14:32.291Z,8.31
2023-03-25T19:17:38.735Z,8.35
2023-03-25T19:20:47.757Z,8.21
2023-03-25T19:23:53.458Z,8.22
2023-03-25T19:26:59.507Z,8.25
2023-03-25T19:30:05.989Z,8.23
2023-03-25T19:33:04.658Z,8.18
2023-03-25T19:36:01.923Z,8.14
2023-03-25T19:39:11.959Z,8.18
2023-03-25T19:42:18.041Z,8.23
2023-03-25T19:45:24.247Z,8.29
2023-03-25T19:48:29.056Z,8.32
2023-03-25T19:51:33.861Z,8.23
2023-03-25T19:54:40.435Z,8.17
2023-03-25T19:57:46.343Z,8.13
2023-03-25T20:00:51.442Z,8.10
2023-03-25T20:03:58.237Z,8.07
2023-03-25T20:07:02.828Z,8.10
2023-03-25T20:10:19.028Z,8.10
2023-03-25T20:13:16.747Z,8.03
2023-03-25T20:16:22.822Z,8.05
2023-03-25T20:19:29.357Z,8.01
2023-03-25T20:22:35.007Z,8.02
2023-03-25T20:25:40.111Z,8.05
2023-03-25T20:28:47.747Z,8.09
2023-03-25T20:31:54.270Z,8.12
2023-03-25T20:35:01.074Z,8.08
2023-03-25T20:38:07.369Z,8.13
2023-03-25T20:41:13.196Z,8.07
2023-03-25T20:44:19.548Z,8.01
2023-03-25T20:47:20.436Z,8.02
2023-03-25T20:50:14.232Z,8.02
2023-03-25T20:53:20.884Z,7.98
2023-03-25T20:56:26.917Z,7.90
2023-03-25T20:59:34.553Z,7.85
2023-03-25T21:02:40.224Z,7.88
2023-03-25T21:05:46.412Z,7.87
2023-03-25T21:08:55.830Z,7.81
2023-03-25T21:12:02.057Z,7.84
2023-03-25T21:15:11.846Z,7.81
2023-03-25T21:18:17.488Z,7.84
2023-03-25T21:21:24.333Z,7.87
2023-03-25T21:24:24.086Z,7.88
2023-03-25T21:27:37.805Z,7.74
2023-03-25T21:30:39.356Z,7.75
2023-03-25T21:33:48.452Z,7.66
2023-03-25T21:36:55.267Z,7.70
2023-03-25T21:40:04.835Z,7.68
2023-03-25T21:43:09.636Z,7.81
2023-03-25T21:46:16.716Z,7.64
2023-03-25T21:49:23.333Z,7.48
2023-03-25T21:52:32.187Z,7.38
2023-03-25T21:55:39.500Z,7.39
2023-03-25T21:58:47.337Z,7.46
2023-03-25T22:01:54.036Z,7.52
2023-03-25T22:05:00.013Z,7.58
2023-03-25T22:08:05.256Z,7.48
2023-03-25T22:11:21.528Z,7.51
2023-03-25T22:14:26.457Z,7.55
2023-03-25T22:17:33.676Z,7.54
2023-03-25T22:20:40.406Z,7.58
2023-03-25T22:23:48.826Z,7.57
2023-03-25T22:26:50.437Z,7.54
2023-03-25T22:29:36.579Z,7.48
2023-03-25T22:32:32.507Z,7.50
2023-03-25T22:35:24.942Z,7.49
2023-03-25T22:38:31.784Z,7.50
2023-03-25T22:41:37.135Z,7.46
2023-03-25T22:44:43.226Z,7.45
2023-03-25T22:47:49.287Z,7.47
2023-03-25T22:50:54.586Z,7.46
2023-03-25T22:54:00.180Z,7.47
2023-03-25T22:57:05.558Z,7.48
2023-03-25T23:00:10.845Z,7.50
2023-03-25T23:03:17.611Z,7.49
2023-03-25T23:06:24.448Z,7.52
2023-03-25T23:09:32.794Z,7.46
2023-03-25T23:12:39.877Z,7.41
2023-03-25T23:15:46.742Z,7.39
2023-03-25T23:18:52.696Z,7.42
2023-03-25T23:21:58.856Z,7.38
2023-03-25T23:25:04.356Z,7.29
2023-03-25T23:28:05.245Z,7.28
2023-03-25T23:31:12.106Z,7.28
2023-03-25T23:34:19.613Z,7.27
2023-03-25T23:37:26.097Z,7.33
2023-03-25T23:40:31.798Z,7.36
2023-03-25T23:43:39.672Z,7.37
2023-03-25T23:46:45.950Z,7.30
2023-03-25T23:49:52.131Z,7.27
2023-03-25T23:52:59.258Z,7.27
2023-03-25T23:56:07.278Z,7.21
2023-03-25T23:59:13.698Z,7.26
